createdAt,value
2022-09-14T00:02:36.022Z,100.00
2022-09-14T00:05:46.667Z,100.00
2022-09-14T00:09:00.641Z,100.00
2022-09-14T00:12:11.039Z,100.00
2022-09-14T00:15:23.181Z,100.00
2022-09-14T00:18:33.903Z,100.00
2022-09-14T00:21:44.351Z,100.00
2022-09-14T00:24:54.598Z,100.00
2022-09-14T00:28:04.772Z,100.00
2022-09-14T00:31:16.927Z,100.00
2022-09-14T00:34:27.987Z,100.00
2022-09-14T00:37:39.275Z,100.00
2022-09-14T00:40:58.835Z,100.00
2022-09-14T00:44:47.642Z,100.00
2022-09-14T00:47:59.240Z,100.00
2022-09-14T00:51:09.560Z,100.00
2022-09-14T00:54:20.253Z,100.00
2022-09-14T00:57:35.006Z,100.00
2022-09-14T01:00:45.175Z,100.00
2022-09-14T01:03:56.497Z,100.00
2022-09-14T01:07:16.119Z,100.00
2022-09-14T01:10:41.388Z,100.00
2022-09-14T01:13:59.874Z,100.00
2022-09-14T01:17:16.115Z,100.00
2022-09-14T01:20:33.702Z,100.00
2022-09-14T01:23:50.096Z,100.00
2022-09-14T01:27:26.128Z,100.00
2022-09-14T01:30:38.763Z,100.00
2022-09-14T01:33:56.044Z,100.00
2022-09-14T01:37:13.256Z,100.00
2022-09-14T01:40:28.330Z,100.00
2022-09-14T01:43:43.854Z,100.00
2022-09-14T01:46:56.647Z,100.00
2022-09-14T01:50:12.100Z,100.00
2022-09-14T01:53:28.323Z,100.00
2022-09-14T01:56:41.484Z,100.00
2022-09-14T01:59:56.451Z,100.00
2022-09-14T02:03:12.690Z,100.00
2022-09-14T02:06:29.549Z,100.00
2022-09-14T02:09:40.722Z,100.00
2022-09-14T02:12:52.082Z,100.00
2022-09-14T02:16:03.836Z,100.00
2022-09-14T02:19:14.942Z,100.00
2022-09-14T02:22:28.506Z,100.00
2022-09-14T02:25:41.104Z,100.00
2022-09-14T02:28:55.955Z,100.00
2022-09-14T02:32:16.457Z,100.00
2022-09-14T02:35:32.963Z,100.00
2022-09-14T02:38:51.880Z,100.00
2022-09-14T02:42:13.239Z,100.00
2022-09-14T02:45:29.935Z,100.00
2022-09-14T02:48:45.024Z,100.00
2022-09-14T02:52:03.869Z,100.00
2022-09-14T02:55:19.357Z,100.00
2022-09-14T02:58:36.022Z,100.00
2022-09-14T03:01:46.675Z,100.00
2022-09-14T03:04:58.786Z,100.00
2022-09-14T03:08:11.259Z,100.00
2022-09-14T03:11:21.432Z,100.00
2022-09-14T03:14:31.555Z,100.00
2022-09-14T03:17:46.471Z,100.00
2022-09-14T03:21:05.421Z,100.00
2022-09-14T03:24:16.014Z,100.00
2022-09-14T03:27:26.447Z,100.00
2022-09-14T03:30:37.093Z,100.00
2022-09-14T03:33:47.393Z,100.00
2022-09-14T03:36:58.808Z,100.00
2022-09-14T03:40:11.116Z,100.00
2022-09-14T03:43:21.748Z,100.00
2022-09-14T03:46:32.334Z,100.00
2022-09-14T03:49:42.241Z,100.00
2022-09-14T03:52:53.960Z,100.00
2022-09-14T03:56:08.168Z,100.00
2022-09-14T03:59:18.295Z,100.00
2022-09-14T04:02:29.296Z,100.00
2022-09-14T04:05:39.599Z,100.00
2022-09-14T04:08:51.210Z,100.00
2022-09-14T04:12:01.374Z,100.00
2022-09-14T04:15:11.662Z,100.00
2022-09-14T04:18:22.010Z,100.00
2022-09-14T04:21:32.980Z,100.00
2022-09-14T04:24:44.991Z,100.00
2022-09-14T04:28:16.880Z,100.00
2022-09-14T04:31:26.457Z,100.00
2022-09-14T04:34:37.033Z,100.00
2022-09-14T04:37:47.026Z,100.00
2022-09-14T04:40:59.008Z,100.00
2022-09-14T04:44:09.161Z,100.00
2022-09-14T04:47:19.237Z,100.00
2022-09-14T04:50:29.572Z,100.00
2022-09-14T04:53:40.368Z,100.00
2022-09-14T04:56:51.715Z,100.00
2022-09-14T05:00:01.810Z,100.00
2022-09-14T05:03:11.982Z,100.00
2022-09-14T05:06:23.691Z,100.00
2022-09-14T05:09:33.686Z,100.00
2022-09-14T05:12:44.981Z,100.00
2022-09-14T05:15:55.793Z,100.00
2022-09-14T05:19:07.049Z,100.00
2022-09-14T05:22:17.417Z,100.00
2022-09-14T05:25:27.691Z,100.00
2022-09-14T05:28:39.458Z,100.00
2022-09-14T05:31:50.101Z,100.00
2022-09-14T05:35:00.550Z,100.00
2022-09-14T05:38:10.564Z,100.00
2022-09-14T05:41:20.803Z,100.00
2022-09-14T05:44:32.143Z,100.00
2022-09-14T05:47:42.215Z,100.00
2022-09-14T05:50:59.656Z,100.00
2022-09-14T05:54:12.034Z,100.00
2022-09-14T05:57:22.120Z,100.00
2022-09-14T06:00:33.783Z,100.00
2022-09-14T06:03:46.862Z,100.00
2022-09-14T06:07:17.580Z,100.00
2022-09-14T06:10:28.085Z,100.00
2022-09-14T06:13:38.671Z,100.00
2022-09-14T06:16:50.265Z,100.00
2022-09-14T06:20:04.410Z,100.00
2022-09-14T06:23:15.344Z,100.00
2022-09-14T06:26:26.037Z,100.00
2022-09-14T06:29:36.911Z,100.00
2022-09-14T06:32:48.668Z,100.00
2022-09-14T06:36:00.329Z,100.00
2022-09-14T06:39:10.425Z,100.00
2022-09-14T06:42:20.178Z,100.00
2022-09-14T06:45:31.077Z,100.00
2022-09-14T06:48:45.945Z,100.00
2022-09-14T06:51:57.473Z,100.00
2022-09-14T06:55:08.662Z,100.00
2022-09-14T06:58:20.647Z,100.00
2022-09-14T07:01:31.124Z,100.00
2022-09-14T07:04:43.190Z,100.00
2022-09-14T07:07:53.386Z,100.00
2022-09-14T07:11:04.639Z,100.00
2022-09-14T07:14:15.241Z,100.00
2022-09-14T07:17:25.451Z,100.00
2022-09-14T07:20:36.711Z,100.00
2022-09-14T07:23:48.254Z,100.00
2022-09-14T07:26:58.456Z,100.00
2022-09-14T07:30:09.915Z,98.93
2022-09-14T07:33:20.123Z,97.31
2022-09-14T07:36:35.126Z,96.84
2022-09-14T07:39:46.194Z,94.66
2022-09-14T07:42:57.764Z,93.32
2022-09-14T07:46:08.888Z,85.89
2022-09-14T07:49:19.234Z,82.98
2022-09-14T07:52:32.791Z,83.74
2022-09-14T07:55:45.824Z,82.06
2022-09-14T07:59:11.431Z,78.13
2022-09-14T08:02:29.192Z,75.71
2022-09-14T08:05:39.387Z,79.27
2022-09-14T08:08:53.034Z,80.39
2022-09-14T08:12:05.514Z,82.21
2022-09-14T08:15:15.546Z,81.76
2022-09-14T08:18:25.666Z,81.04
2022-09-14T08:21:37.042Z,82.09
2022-09-14T08:24:48.569Z,82.79
2022-09-14T08:27:58.655Z,83.50
2022-09-14T08:31:10.554Z,82.14
2022-09-14T08:34:21.331Z,82.98
2022-09-14T08:37:31.590Z,82.89
2022-09-14T08:40:47.456Z,83.41
2022-09-14T08:44:01.120Z,84.43
2022-09-14T08:47:14.749Z,81.99
2022-09-14T08:50:25.491Z,78.41
2022-09-14T08:53:39.984Z,76.97
2022-09-14T08:57:04.957Z,77.21
2022-09-14T09:00:18.161Z,76.53
2022-09-14T09:03:57.454Z,75.11
2022-09-14T09:07:17.715Z,73.13
2022-09-14T09:10:28.634Z,70.18
2022-09-14T09:13:40.322Z,68.87
2022-09-14T09:16:54.965Z,68.46
2022-09-14T09:20:13.022Z,65.93
2022-09-14T09:23:25.635Z,64.57
2022-09-14T09:26:35.969Z,65.08
2022-09-14T09:29:47.405Z,65.51
2022-09-14T09:32:58.357Z,65.40
2022-09-14T09:36:13.078Z,62.09
2022-09-14T09:39:25.884Z,65.95
2022-09-14T09:42:35.931Z,62.57
2022-09-14T09:45:57.594Z,64.50
2022-09-14T09:49:19.246Z,65.87
2022-09-14T09:52:32.924Z,66.29
2022-09-14T09:55:47.372Z,66.41
2022-09-14T09:58:57.746Z,66.48
2022-09-14T10:02:27.493Z,66.56
2022-09-14T10:05:37.946Z,65.31
2022-09-14T10:08:48.859Z,64.86
2022-09-14T10:12:01.459Z,64.84
2022-09-14T10:15:18.074Z,64.79
2022-09-14T10:18:31.228Z,65.29
2022-09-14T10:22:03.409Z,65.38
2022-09-14T10:25:23.492Z,65.90
2022-09-14T10:28:34.839Z,67.13
2022-09-14T10:31:49.177Z,67.80
2022-09-14T10:35:00.818Z,68.13
2022-09-14T10:38:32.832Z,68.17
2022-09-14T10:41:48.102Z,66.42
2022-09-14T10:45:14.871Z,68.63
2022-09-14T10:48:41.220Z,69.33
2022-09-14T10:52:02.117Z,70.23
2022-09-14T10:55:34.388Z,69.94
2022-09-14T10:59:02.283Z,70.52
2022-09-14T11:02:43.971Z,69.08
2022-09-14T11:06:06.747Z,68.54
2022-09-14T11:09:24.518Z,67.58
2022-09-14T11:12:43.832Z,66.53
2022-09-14T11:16:04.429Z,65.85
2022-09-14T11:19:24.598Z,64.51
2022-09-14T11:22:45.617Z,63.56
2022-09-14T11:26:00.894Z,63.55
2022-09-14T11:29:20.667Z,63.09
2022-09-14T11:32:34.797Z,64.25
2022-09-14T11:35:49.288Z,64.44
2022-09-14T11:39:11.667Z,64.74
2022-09-14T11:42:28.579Z,66.15
2022-09-14T11:45:45.275Z,66.94
2022-09-14T11:49:04.736Z,67.94
2022-09-14T11:52:20.830Z,66.57
2022-09-14T11:55:31.876Z,68.54
2022-09-14T11:58:47.892Z,69.94
2022-09-14T12:01:58.004Z,71.52
2022-09-14T12:05:32.486Z,71.89
2022-09-14T12:08:42.696Z,71.97
2022-09-14T12:11:55.113Z,71.50
2022-09-14T12:15:16.333Z,72.77
2022-09-14T12:18:28.696Z,74.74
2022-09-14T12:21:38.921Z,76.24
2022-09-14T12:24:59.949Z,76.39
2022-09-14T12:28:28.516Z,77.15
2022-09-14T12:32:00.539Z,77.09
2022-09-14T12:35:46.959Z,76.07
2022-09-14T12:39:20.225Z,75.57
2022-09-14T12:42:32.142Z,72.68
2022-09-14T12:45:50.938Z,72.15
2022-09-14T12:49:04.342Z,73.62
2022-09-14T12:52:27.915Z,74.02
2022-09-14T12:55:53.889Z,72.88
2022-09-14T12:59:10.984Z,73.85
2022-09-14T13:02:47.508Z,75.84
2022-09-14T13:05:59.691Z,75.96
2022-09-14T13:09:20.201Z,76.87
2022-09-14T13:12:35.569Z,76.93
2022-09-14T13:15:56.458Z,77.28
2022-09-14T13:19:19.739Z,76.02
2022-09-14T13:22:33.075Z,75.52
2022-09-14T13:25:43.597Z,75.27
2022-09-14T13:28:55.921Z,74.84
2022-09-14T13:32:07.733Z,73.78
2022-09-14T13:35:21.233Z,74.33
2022-09-14T13:38:35.646Z,74.89
2022-09-14T13:41:46.028Z,74.83
2022-09-14T13:44:56.502Z,75.06
2022-09-14T13:48:07.498Z,74.99
2022-09-14T13:51:22.472Z,75.51
2022-09-14T13:54:37.406Z,75.65
2022-09-14T13:58:08.876Z,75.48
2022-09-14T14:01:27.760Z,74.90
2022-09-14T14:04:38.791Z,72.19
2022-09-14T14:07:49.183Z,71.50
2022-09-14T14:11:01.978Z,70.37
2022-09-14T14:14:14.824Z,70.67
2022-09-14T14:17:34.631Z,69.10
2022-09-14T14:20:44.994Z,68.39
2022-09-14T14:24:20.406Z,68.49
2022-09-14T14:27:34.408Z,66.61
2022-09-14T14:30:44.682Z,67.07
2022-09-14T14:33:55.575Z,65.83
2022-09-14T14:37:06.208Z,64.84
2022-09-14T14:40:18.208Z,64.78
2022-09-14T14:43:30.476Z,65.01
2022-09-14T14:46:42.485Z,63.77
2022-09-14T14:49:53.247Z,62.22
2022-09-14T14:53:05.208Z,63.40
2022-09-14T14:56:15.459Z,63.65
2022-09-14T14:59:31.041Z,64.79
2022-09-14T15:02:41.492Z,64.84
2022-09-14T15:05:51.879Z,64.79
2022-09-14T15:09:01.774Z,64.69
2022-09-14T15:12:11.533Z,64.85
2022-09-14T15:15:25.390Z,65.47
2022-09-14T15:18:35.591Z,65.32
2022-09-14T15:21:45.889Z,64.79
2022-09-14T15:24:56.117Z,63.03
2022-09-14T15:28:06.015Z,63.90
2022-09-14T15:31:17.693Z,64.58
2022-09-14T15:34:27.791Z,65.86
2022-09-14T15:37:38.148Z,65.72
2022-09-14T15:40:48.182Z,66.41
2022-09-14T15:43:58.183Z,68.36
2022-09-14T15:47:10.611Z,67.67
2022-09-14T15:50:20.854Z,67.77
2022-09-14T15:53:30.871Z,67.17
2022-09-14T15:56:41.743Z,66.04
2022-09-14T15:59:54.301Z,65.65
2022-09-14T16:03:06.115Z,65.09
2022-09-14T16:06:16.513Z,66.40
2022-09-14T16:09:26.655Z,66.38
2022-09-14T16:12:36.845Z,65.90
2022-09-14T16:15:46.813Z,65.56
2022-09-14T16:18:58.664Z,65.73
2022-09-14T16:22:09.336Z,66.99
2022-09-14T16:25:19.567Z,66.80
2022-09-14T16:28:29.579Z,66.93
2022-09-14T16:31:42.056Z,66.72
2022-09-14T16:34:53.747Z,67.33
2022-09-14T16:38:06.033Z,67.97
2022-09-14T16:41:17.792Z,68.81
2022-09-14T16:44:29.457Z,68.81
2022-09-14T16:47:39.664Z,68.50
2022-09-14T16:50:55.512Z,68.60
2022-09-14T16:54:08.128Z,69.61
2022-09-14T16:57:18.345Z,69.84
2022-09-14T17:00:28.662Z,70.76
2022-09-14T17:03:38.501Z,70.59
2022-09-14T17:06:51.558Z,71.24
2022-09-14T17:10:01.979Z,72.29
2022-09-14T17:13:12.037Z,72.49
2022-09-14T17:16:24.480Z,73.36
2022-09-14T17:19:34.887Z,74.18
2022-09-14T17:22:46.429Z,73.86
2022-09-14T17:25:57.021Z,74.05
2022-09-14T17:29:08.262Z,75.02
2022-09-14T17:32:18.519Z,75.71
2022-09-14T17:35:28.543Z,75.67
2022-09-14T17:38:42.079Z,75.73
2022-09-14T17:41:52.035Z,76.84
2022-09-14T17:45:04.139Z,77.13
2022-09-14T17:48:14.339Z,77.10
2022-09-14T17:51:26.553Z,77.54
2022-09-14T17:54:38.339Z,77.83
2022-09-14T17:57:48.674Z,78.39
2022-09-14T18:01:10.174Z,78.97
2022-09-14T18:04:20.630Z,79.32
2022-09-14T18:07:31.006Z,79.86
2022-09-14T18:10:42.677Z,80.43
2022-09-14T18:13:53.455Z,80.92
2022-09-14T18:17:03.642Z,81.80
2022-09-14T18:20:15.624Z,82.72
2022-09-14T18:23:26.246Z,83.32
2022-09-14T18:26:38.484Z,83.95
2022-09-14T18:29:48.466Z,84.46
2022-09-14T18:32:58.466Z,84.92
2022-09-14T18:36:09.102Z,85.14
2022-09-14T18:39:20.063Z,85.52
2022-09-14T18:42:31.771Z,86.09
2022-09-14T18:45:43.868Z,86.02
2022-09-14T18:48:56.069Z,86.38
2022-09-14T18:52:07.362Z,86.71
2022-09-14T18:55:18.265Z,87.16
2022-09-14T18:58:33.099Z,87.75
2022-09-14T19:01:43.799Z,88.13
2022-09-14T19:04:55.442Z,88.82
2022-09-14T19:08:05.448Z,89.33
2022-09-14T19:11:17.901Z,89.94
2022-09-14T19:14:29.986Z,90.78
2022-09-14T19:17:40.151Z,91.24
2022-09-14T19:21:05.785Z,91.74
2022-09-14T19:24:18.177Z,92.51
2022-09-14T19:27:28.826Z,93.12
2022-09-14T19:30:42.535Z,93.82
2022-09-14T19:33:53.197Z,94.44
2022-09-14T19:37:03.170Z,95.87
2022-09-14T19:40:13.847Z,96.83
2022-09-14T19:43:24.184Z,97.62
2022-09-14T19:46:38.585Z,98.71
2022-09-14T19:49:49.970Z,98.69
2022-09-14T19:53:04.432Z,99.23
2022-09-14T19:56:16.540Z,99.70
2022-09-14T19:59:27.079Z,100.00
2022-09-14T20:02:38.909Z,100.00
2022-09-14T20:05:49.466Z,100.00
2022-09-14T20:09:01.897Z,100.00
2022-09-14T20:12:11.982Z,100.00
2022-09-14T20:15:22.187Z,100.00
2022-09-14T20:18:34.000Z,100.00
2022-09-14T20:21:45.343Z,100.00
2022-09-14T20:24:55.494Z,100.00
2022-09-14T20:28:05.444Z,100.00
2022-09-14T20:31:15.737Z,100.00
2022-09-14T20:34:27.344Z,100.00
2022-09-14T20:37:37.783Z,100.00
2022-09-14T20:40:48.021Z,100.00
2022-09-14T20:43:58.371Z,100.00
2022-09-14T20:47:08.736Z,100.00
2022-09-14T20:50:20.428Z,100.00
2022-09-14T20:53:35.531Z,100.00
2022-09-14T20:56:47.057Z,100.00
2022-09-14T20:59:57.743Z,100.00
2022-09-14T21:03:07.932Z,100.00
2022-09-14T21:06:21.449Z,100.00
2022-09-14T21:09:31.980Z,100.00
2022-09-14T21:12:42.283Z,100.00
2022-09-14T21:15:52.279Z,100.00
2022-09-14T21:19:04.611Z,100.00
2022-09-14T21:22:16.082Z,100.00
2022-09-14T21:25:26.748Z,100.00
2022-09-14T21:28:38.657Z,100.00
2022-09-14T21:31:49.693Z,100.00
2022-09-14T21:34:59.915Z,100.00
2022-09-14T21:38:11.339Z,100.00
2022-09-14T21:41:23.477Z,100.00
2022-09-14T21:44:35.519Z,100.00
2022-09-14T21:47:45.631Z,100.00
2022-09-14T21:51:03.750Z,100.00
2022-09-14T21:54:15.972Z,100.00
2022-09-14T21:57:26.527Z,100.00
2022-09-14T22:00:36.806Z,100.00
2022-09-14T22:03:46.879Z,100.00
2022-09-14T22:06:57.237Z,100.00
2022-09-14T22:10:10.709Z,100.00
2022-09-14T22:13:21.492Z,100.00
2022-09-14T22:16:36.919Z,100.00
2022-09-14T22:19:48.066Z,100.00
2022-09-14T22:22:58.189Z,100.00
2022-09-14T22:26:11.826Z,100.00
2022-09-14T22:29:22.153Z,100.00
2022-09-14T22:32:32.377Z,100.00
2022-09-14T22:35:51.906Z,100.00
2022-09-14T22:39:03.040Z,100.00
2022-09-14T22:42:14.940Z,100.00
2022-09-14T22:45:25.264Z,100.00
2022-09-14T22:48:36.050Z,100.00
2022-09-14T22:51:46.137Z,100.00
2022-09-14T22:54:56.264Z,100.00
2022-09-14T22:58:07.994Z,100.00
2022-09-14T23:01:21.073Z,100.00
2022-09-14T23:04:31.786Z,100.00
2022-09-14T23:07:42.061Z,100.00
2022-09-14T23:10:52.392Z,100.00
2022-09-14T23:14:04.119Z,100.00
2022-09-14T23:17:14.892Z,100.00
2022-09-14T23:20:25.470Z,100.00
2022-09-14T23:23:36.196Z,100.00
2022-09-14T23:26:46.411Z,100.00
2022-09-14T23:29:58.631Z,100.00
2022-09-14T23:33:08.890Z,100.00
2022-09-14T23:36:19.313Z,100.00
2022-09-14T23:39:29.557Z,100.00
2022-09-14T23:42:39.755Z,100.00
2022-09-14T23:45:51.604Z,100.00
2022-09-14T23:49:02.150Z,100.00
2022-09-14T23:52:12.211Z,100.00
2022-09-14T23:55:22.480Z,100.00
2022-09-14T23:58:32.876Z,100.00
